Portada
METAR-TAF:

METAR-TAF

Aeropuertos :

Aeropuerto Internacional Jinnah

Karachi, Pakistán

latitud: 24-54N, longitud: 067-08E, altitud: 21 m

Observación

El informe se hizo hace 34 minutos, a las 17:55 UTC
Viento calma
Temperatura 22°C
Humedad 73%
Presión 1016 hPa
Visibilidad: 6000 m
Escasas nubes a una altura de 2000 ft

METAR: OPKC 161755Z 00000KT 6000 FEW020 22/17 Q1016 NOSIG

Hora: 23:29 (18:29 UTC)

Pronóstico

El informe se hizo hace 2 horas y 59 minutos, a las 15:30 UTC
Pronóstico válido del 16 a las 18 UTC al 17 a las 03 UTC
Viento 5 kt del noreste
Visibilidad: 4000 m
humo
Temporalmente
del 17 a las 00 UTC al 17 a las 03 UTC
Viento 7 kt del noreste
Visibilidad: 1500 m
neblina

TAF: OPKC 161530Z 1618/1703 04005KT 4000 FU NSC TEMPO 1700/1703 04007KT 1500 BR NSC

Observaciones y pronósticos meteorológicos de más de 4000 aeropuertos (mensajes METAR y TAF).

Los puntos amarillos y rojos representan las estaciones disponibles.

Ponga el ratón en el punto deseado para ver el nombre de la estación.

Haga clic para ver las observaciones y los pronósticos meteorológicos.

Para cambiar el mapa : haga clic en los botones verdes con una cruz de color negro para hacer un zoom, en el botón verde con un guión para alejar o en las flechas verdes para mapas adyacentes.


METAR-TAF: